Time;durP1;ratioP1;P1;durP2;ratioP2;P2;SDS_P1;SDS_P2;PMS_P1;PMS_P2;Temp;Humidity;BMP_temperature;BMP_pressure;BME280_temperature;BME280_humidity;BME280_pressure;Samples;Min_cycle;Max_cycle;Signal;HPM_P1;HPM_P2
2023/03/03 00:01:32;;;;;;;47.23;25.30;;;;;;;;;;5114848;28;20233;-77
2023/03/03 00:04:00;;;;;;;42.67;25.10;;;;;;;;;;5115623;28;20318;-77
2023/03/03 00:06:29;;;;;;;50.67;25.40;;;;;;;;;;5115172;28;20217;-78
2023/03/03 00:08:57;;;;;;;47.67;24.77;;;;;;;;;;5115094;28;20601;-77
2023/03/03 00:11:25;;;;;;;45.63;24.83;;;;;;;;;;5115340;28;20206;-77
2023/03/03 00:13:53;;;;;;;44.13;23.90;;;;;;;;;;5114802;28;20243;-77
2023/03/03 00:16:23;;;;;;;46.43;24.00;;;;;;;;;;5114635;28;20631;-78
2023/03/03 00:18:50;;;;;;;44.73;24.73;;;;;;;;;;5114711;27;20638;-77
2023/03/03 00:21:28;;;;;;;46.40;25.07;;;;;;;;;;5115330;28;20282;-77
2023/03/03 00:23:55;;;;;;;46.93;26.13;;;;;;;;;;5114787;28;20665;-77
2023/03/03 00:26:27;;;;;;;49.70;25.67;;;;;;;;;;5114651;28;20228;-77
2023/03/03 00:28:55;;;;;;;44.20;24.43;;;;;;;;;;5114541;28;20344;-77
2023/03/03 00:31:27;;;;;;;49.77;25.73;;;;;;;;;;5114238;28;20189;-79
2023/03/03 00:33:55;;;;;;;43.67;24.57;;;;;;;;;;5115035;27;20228;-77
2023/03/03 00:36:27;;;;;;;50.57;24.63;;;;;;;;;;5114671;28;20670;-77
2023/03/03 00:38:55;;;;;;;44.07;23.80;;;;;;;;;;5114619;28;20293;-77
2023/03/03 00:41:26;;;;;;;45.70;24.70;;;;;;;;;;5114241;28;20674;-76
2023/03/03 00:43:53;;;;;;;42.00;23.97;;;;;;;;;;5112636;28;20757;-76
2023/03/03 00:46:21;;;;;;;48.97;24.73;;;;;;;;;;5114719;28;20294;-78
2023/03/03 00:48:50;;;;;;;51.73;24.43;;;;;;;;;;5114559;28;20264;-77
2023/03/03 00:51:26;;;;;;;47.43;25.67;;;;;;;;;;5114290;28;20670;-77
2023/03/03 00:53:53;;;;;;;48.70;26.03;;;;;;;;;;5114042;28;20658;-77
2023/03/03 00:56:20;;;;;;;46.37;26.77;;;;;;;;;;5114419;28;20221;-77
2023/03/03 00:58:49;;;;;;;52.97;26.27;;;;;;;;;;5113961;28;20666;-77
2023/03/03 01:01:17;;;;;;;53.30;27.03;;;;;;;;;;5113858;28;20292;-76
2023/03/03 01:03:45;;;;;;;49.03;26.83;;;;;;;;;;5114219;28;20221;-77
2023/03/03 01:06:13;;;;;;;51.60;26.17;;;;;;;;;;5114525;28;20213;-77
2023/03/03 01:08:40;;;;;;;46.83;25.80;;;;;;;;;;5113935;27;20321;-77
2023/03/03 01:11:10;;;;;;;44.80;25.17;;;;;;;;;;5114002;28;20280;-78
2023/03/03 01:13:38;;;;;;;49.67;25.97;;;;;;;;;;5113674;28;20221;-77
2023/03/03 01:16:07;;;;;;;45.17;24.93;;;;;;;;;;5113687;28;20240;-77
2023/03/03 01:18:35;;;;;;;48.27;24.70;;;;;;;;;;5113722;28;20236;-77
2023/03/03 01:21:02;;;;;;;47.23;26.43;;;;;;;;;;5113684;28;20247;-78
2023/03/03 01:23:29;;;;;;;49.37;25.57;;;;;;;;;;5113377;28;20232;-77
2023/03/03 01:25:57;;;;;;;49.83;24.93;;;;;;;;;;5113517;28;20607;-77
2023/03/03 01:28:24;;;;;;;49.40;24.57;;;;;;;;;;5113071;28;20312;-77
2023/03/03 01:30:51;;;;;;;46.63;25.43;;;;;;;;;;5113578;28;20269;-76
2023/03/03 01:33:20;;;;;;;51.70;25.27;;;;;;;;;;5113622;28;20233;-76
2023/03/03 01:35:47;;;;;;;47.57;25.40;;;;;;;;;;5113882;28;20222;-77
2023/03/03 01:38:15;;;;;;;49.07;25.63;;;;;;;;;;5113583;28;20293;-77
2023/03/03 01:40:42;;;;;;;52.17;26.87;;;;;;;;;;5113389;28;20221;-77
2023/03/03 01:43:09;;;;;;;49.73;25.80;;;;;;;;;;5113014;28;20197;-77
2023/03/03 01:45:45;;;;;;;51.17;26.20;;;;;;;;;;5113085;28;20332;-78
2023/03/03 01:48:15;;;;;;;47.63;26.03;;;;;;;;;;5113263;28;20316;-77
2023/03/03 01:50:46;;;;;;;49.13;25.33;;;;;;;;;;5112962;28;20677;-77
2023/03/03 01:53:16;;;;;;;57.10;24.27;;;;;;;;;;5113010;28;20297;-78
2023/03/03 01:55:44;;;;;;;48.07;24.67;;;;;;;;;;5112952;28;20639;-78
2023/03/03 01:58:13;;;;;;;50.53;24.77;;;;;;;;;;5112935;28;20224;-77
2023/03/03 02:00:42;;;;;;;44.30;24.47;;;;;;;;;;5113135;28;20217;-77
2023/03/03 02:03:10;;;;;;;53.10;25.27;;;;;;;;;;5112985;28;20220;-77
2023/03/03 02:05:38;;;;;;;49.23;25.53;;;;;;;;;;5112741;28;20198;-77
2023/03/03 02:08:08;;;;;;;51.40;24.47;;;;;;;;;;5112986;28;20287;-77
2023/03/03 02:10:35;;;;;;;53.30;26.13;;;;;;;;;;5112273;28;20853;-77
2023/03/03 02:13:03;;;;;;;51.37;25.23;;;;;;;;;;5113093;28;20196;-77
2023/03/03 02:15:31;;;;;;;49.63;25.47;;;;;;;;;;5112857;28;20283;-78
2023/03/03 02:18:00;;;;;;;53.30;24.97;;;;;;;;;;5112653;28;20201;-77
2023/03/03 02:20:33;;;;;;;53.57;25.57;;;;;;;;;;5112543;28;20231;-78
2023/03/03 02:23:05;;;;;;;46.87;25.87;;;;;;;;;;5112376;28;20289;-78
2023/03/03 02:25:35;;;;;;;52.37;25.87;;;;;;;;;;5112681;28;20225;-77
2023/03/03 02:28:03;;;;;;;50.30;25.93;;;;;;;;;;5112292;28;20615;-76
2023/03/03 02:30:31;;;;;;;51.83;25.97;;;;;;;;;;5112280;28;20301;-77
2023/03/03 02:32:58;;;;;;;49.03;26.27;;;;;;;;;;5112137;28;20229;-77
2023/03/03 02:35:29;;;;;;;51.10;27.00;;;;;;;;;;5104522;28;20296;-78
2023/03/03 02:37:58;;;;;;;57.37;27.00;;;;;;;;;;5092149;28;20742;-77
2023/03/03 02:40:27;;;;;;;54.60;27.20;;;;;;;;;;5091708;28;20222;-77
2023/03/03 02:42:56;;;;;;;60.10;26.07;;;;;;;;;;5091836;28;20639;-78
2023/03/03 02:45:25;;;;;;;56.33;26.90;;;;;;;;;;5091412;28;20270;-77
2023/03/03 02:47:52;;;;;;;54.23;25.17;;;;;;;;;;5092242;28;20197;-77
2023/03/03 02:50:19;;;;;;;52.97;26.43;;;;;;;;;;5091333;28;20324;-78
2023/03/03 02:52:46;;;;;;;56.43;26.27;;;;;;;;;;5091614;28;20292;-78
2023/03/03 02:55:14;;;;;;;53.27;26.17;;;;;;;;;;5091340;28;20666;-78
2023/03/03 02:57:41;;;;;;;50.73;25.50;;;;;;;;;;5091434;28;20741;-77
2023/03/03 03:00:09;;;;;;;50.87;24.43;;;;;;;;;;5091992;28;20249;-77
2023/03/03 03:02:37;;;;;;;55.00;27.07;;;;;;;;;;5091308;28;20671;-78
2023/03/03 03:05:05;;;;;;;48.53;25.87;;;;;;;;;;5091635;28;20218;-77
2023/03/03 03:07:32;;;;;;;53.00;24.80;;;;;;;;;;5091348;28;20277;-78
2023/03/03 03:09:59;;;;;;;49.37;24.80;;;;;;;;;;5090951;28;20661;-77
2023/03/03 03:12:26;;;;;;;53.13;26.30;;;;;;;;;;5100498;28;20304;-78
2023/03/03 03:14:53;;;;;;;55.67;26.27;;;;;;;;;;5111771;28;20280;-78
2023/03/03 03:17:20;;;;;;;50.73;25.40;;;;;;;;;;5111918;28;20223;-77
2023/03/03 03:19:49;;;;;;;55.37;26.07;;;;;;;;;;5111705;28;20302;-77
2023/03/03 03:22:18;;;;;;;61.60;26.83;;;;;;;;;;5111651;28;20296;-78
2023/03/03 03:24:45;;;;;;;52.30;26.07;;;;;;;;;;5111695;28;20208;-77
2023/03/03 03:27:12;;;;;;;61.97;25.27;;;;;;;;;;5111512;28;20342;-78
2023/03/03 03:29:39;;;;;;;57.03;26.23;;;;;;;;;;5111695;28;20319;-77
2023/03/03 03:32:07;;;;;;;55.10;26.67;;;;;;;;;;5111495;28;20197;-77
2023/03/03 03:34:34;;;;;;;57.87;28.93;;;;;;;;;;5111085;28;20615;-77
2023/03/03 03:37:02;;;;;;;68.07;29.37;;;;;;;;;;5111827;28;20282;-78
2023/03/03 03:39:29;;;;;;;61.70;29.23;;;;;;;;;;5111456;28;20240;-77
2023/03/03 03:41:57;;;;;;;60.50;28.93;;;;;;;;;;5111609;28;20364;-77
2023/03/03 03:44:24;;;;;;;56.60;28.30;;;;;;;;;;5111264;28;21078;-77
2023/03/03 03:46:52;;;;;;;60.73;29.63;;;;;;;;;;5111699;28;20200;-77
2023/03/03 03:49:19;;;;;;;65.50;29.17;;;;;;;;;;5111484;28;20315;-77
2023/03/03 03:51:46;;;;;;;67.27;29.83;;;;;;;;;;5111249;28;20662;-77
2023/03/03 03:54:14;;;;;;;61.07;29.40;;;;;;;;;;5111382;28;20228;-77
2023/03/03 03:56:42;;;;;;;63.47;29.03;;;;;;;;;;5111292;28;20674;-76
2023/03/03 03:59:09;;;;;;;50.80;27.97;;;;;;;;;;5111546;28;20223;-78
2023/03/03 04:01:36;;;;;;;57.40;28.43;;;;;;;;;;5111296;28;20280;-76
2023/03/03 04:04:04;;;;;;;55.03;27.10;;;;;;;;;;5111350;28;20301;-77
2023/03/03 04:06:31;;;;;;;61.37;27.67;;;;;;;;;;5111382;28;20198;-77
2023/03/03 04:08:58;;;;;;;59.40;28.07;;;;;;;;;;5110952;28;20253;-77
2023/03/03 04:11:26;;;;;;;63.67;28.77;;;;;;;;;;5110989;28;20291;-78
2023/03/03 04:13:54;;;;;;;69.00;30.77;;;;;;;;;;5110975;28;20329;-74
2023/03/03 04:16:21;;;;;;;59.63;29.97;;;;;;;;;;5111165;28;20217;-75
2023/03/03 04:18:48;;;;;;;59.93;28.20;;;;;;;;;;5114365;28;20249;-75
2023/03/03 04:21:15;;;;;;;61.30;29.37;;;;;;;;;;5114803;28;20201;-75
2023/03/03 04:23:43;;;;;;;69.13;31.23;;;;;;;;;;5114996;28;20215;-74
2023/03/03 04:26:10;;;;;;;61.83;30.53;;;;;;;;;;5114557;28;20235;-77
2023/03/03 04:28:39;;;;;;;71.53;32.43;;;;;;;;;;5114992;28;20232;-78
2023/03/03 04:31:06;;;;;;;69.70;31.60;;;;;;;;;;5114624;28;20292;-74
2023/03/03 04:33:33;;;;;;;69.03;32.13;;;;;;;;;;5114644;27;20284;-77
2023/03/03 04:36:00;;;;;;;77.40;34.07;;;;;;;;;;5114345;28;20196;-75
2023/03/03 04:38:27;;;;;;;67.90;32.43;;;;;;;;;;5115148;28;20287;-76
2023/03/03 04:40:55;;;;;;;77.07;33.77;;;;;;;;;;5114369;28;20282;-77
2023/03/03 04:43:22;;;;;;;66.23;32.87;;;;;;;;;;5114375;28;20288;-75
2023/03/03 04:45:50;;;;;;;62.23;31.83;;;;;;;;;;5113913;28;20259;-75
2023/03/03 04:48:17;;;;;;;69.40;33.73;;;;;;;;;;5114540;28;20224;-75
2023/03/03 04:50:45;;;;;;;73.47;33.33;;;;;;;;;;5114072;28;20312;-75
2023/03/03 04:53:12;;;;;;;75.63;34.20;;;;;;;;;;5114192;28;20225;-77
2023/03/03 04:55:39;;;;;;;76.03;33.37;;;;;;;;;;5114181;28;20223;-75
2023/03/03 04:58:09;;;;;;;74.03;35.00;;;;;;;;;;5114122;28;20231;-76
2023/03/03 05:00:36;;;;;;;82.47;35.67;;;;;;;;;;5113774;28;20201;-76
2023/03/03 05:03:05;;;;;;;80.73;36.30;;;;;;;;;;5113928;28;20224;-76
2023/03/03 05:05:32;;;;;;;82.87;37.50;;;;;;;;;;5114143;28;20193;-75
2023/03/03 05:07:59;;;;;;;78.53;37.07;;;;;;;;;;5113851;28;20201;-77
2023/03/03 05:10:26;;;;;;;84.90;36.57;;;;;;;;;;5113507;28;20721;-74
2023/03/03 05:12:53;;;;;;;88.90;38.20;;;;;;;;;;5113841;28;20623;-75
2023/03/03 05:15:20;;;;;;;93.47;39.27;;;;;;;;;;5113690;28;20240;-77
2023/03/03 05:17:48;;;;;;;95.70;38.83;;;;;;;;;;5113996;28;20231;-76
2023/03/03 05:20:17;;;;;;;86.40;38.23;;;;;;;;;;5113700;28;20249;-77
2023/03/03 05:22:44;;;;;;;88.57;38.23;;;;;;;;;;5113489;28;20200;-77
2023/03/03 05:25:12;;;;;;;89.13;39.83;;;;;;;;;;5113635;28;20296;-77
2023/03/03 05:27:39;;;;;;;87.83;37.83;;;;;;;;;;5113522;27;20262;-75
2023/03/03 05:30:07;;;;;;;95.53;37.73;;;;;;;;;;5112376;28;20235;-77
2023/03/03 05:32:34;;;;;;;81.73;36.83;;;;;;;;;;5113681;28;20275;-78
2023/03/03 05:35:02;;;;;;;84.03;37.07;;;;;;;;;;5113361;28;20222;-75
2023/03/03 05:37:30;;;;;;;81.00;36.00;;;;;;;;;;5113736;28;20950;-78
2023/03/03 05:39:57;;;;;;;72.47;35.37;;;;;;;;;;5113371;28;20303;-77
2023/03/03 05:42:24;;;;;;;79.30;35.63;;;;;;;;;;5113533;28;20223;-76
2023/03/03 05:44:52;;;;;;;76.70;36.50;;;;;;;;;;5113160;28;20263;-76
2023/03/03 05:47:19;;;;;;;83.50;37.67;;;;;;;;;;5113205;28;20278;-77
2023/03/03 05:49:46;;;;;;;86.87;38.77;;;;;;;;;;5112956;28;20254;-77
2023/03/03 05:52:13;;;;;;;81.20;35.50;;;;;;;;;;5113120;28;20235;-78
2023/03/03 05:54:42;;;;;;;79.33;36.73;;;;;;;;;;5112678;28;20685;-78
2023/03/03 05:57:09;;;;;;;78.77;35.93;;;;;;;;;;5113032;28;20245;-78
2023/03/03 05:59:38;;;;;;;79.77;37.30;;;;;;;;;;5113222;28;20194;-77
2023/03/03 06:02:05;;;;;;;85.57;37.83;;;;;;;;;;5113037;28;20214;-78
2023/03/03 06:04:32;;;;;;;82.70;37.17;;;;;;;;;;5112212;28;20248;-77
2023/03/03 06:06:59;;;;;;;84.10;36.80;;;;;;;;;;5112748;28;20647;-78
2023/03/03 06:09:26;;;;;;;92.87;40.27;;;;;;;;;;5112638;28;20224;-77
2023/03/03 06:11:55;;;;;;;97.83;42.17;;;;;;;;;;5112707;28;20290;-78
2023/03/03 06:14:23;;;;;;;104.03;43.30;;;;;;;;;;5112723;28;20220;-78
2023/03/03 06:16:50;;;;;;;112.03;44.00;;;;;;;;;;5112370;28;20559;-78
2023/03/03 06:19:17;;;;;;;116.53;46.27;;;;;;;;;;5111958;28;20296;-78
2023/03/03 06:21:44;;;;;;;120.83;47.80;;;;;;;;;;5112419;28;20261;-78
2023/03/03 06:24:12;;;;;;;114.67;48.20;;;;;;;;;;5112508;28;20237;-77
2023/03/03 06:26:39;;;;;;;119.43;48.80;;;;;;;;;;5111899;28;20344;-75
2023/03/03 06:29:11;;;;;;;118.07;48.67;;;;;;;;;;5110385;28;20237;-77
2023/03/03 06:31:38;;;;;;;121.63;48.90;;;;;;;;;;5111976;28;20223;-78
2023/03/03 06:34:05;;;;;;;127.50;50.70;;;;;;;;;;5109363;28;20288;-77
2023/03/03 06:36:32;;;;;;;125.77;50.80;;;;;;;;;;5109909;28;20300;-76
2023/03/03 06:38:59;;;;;;;126.17;51.93;;;;;;;;;;5093224;28;20643;-77
2023/03/03 06:41:27;;;;;;;126.47;50.37;;;;;;;;;;5099694;28;20201;-78
2023/03/03 06:43:54;;;;;;;136.63;51.67;;;;;;;;;;5091234;28;20288;-79
2023/03/03 06:46:22;;;;;;;131.23;51.57;;;;;;;;;;5092215;28;20281;-79
2023/03/03 06:48:49;;;;;;;129.53;51.87;;;;;;;;;;5091560;28;20297;-79
2023/03/03 06:51:21;;;;;;;128.90;52.07;;;;;;;;;;5091542;28;20706;-79
2023/03/03 06:53:49;;;;;;;132.90;52.43;;;;;;;;;;5091493;28;20222;-79
2023/03/03 06:56:17;;;;;;;132.77;51.63;;;;;;;;;;5091477;28;20198;-79
2023/03/03 06:58:44;;;;;;;130.33;52.77;;;;;;;;;;5091716;28;20296;-79
2023/03/03 07:01:15;;;;;;;130.17;52.67;;;;;;;;;;5091069;28;20241;-79
2023/03/03 07:03:44;;;;;;;130.67;52.43;;;;;;;;;;5091569;28;20666;-78
2023/03/03 07:06:17;;;;;;;125.30;52.27;;;;;;;;;;5091879;28;20233;-77
2023/03/03 07:08:44;;;;;;;125.50;51.43;;;;;;;;;;5091424;28;20298;-77
2023/03/03 07:11:13;;;;;;;124.03;51.33;;;;;;;;;;5091376;28;20662;-79
2023/03/03 07:13:43;;;;;;;130.23;52.27;;;;;;;;;;5111034;28;20205;-79
2023/03/03 07:16:13;;;;;;;127.10;51.43;;;;;;;;;;5111308;28;20717;-79
2023/03/03 07:18:45;;;;;;;125.93;51.07;;;;;;;;;;5111751;28;20200;-78
2023/03/03 07:21:18;;;;;;;131.17;51.17;;;;;;;;;;5111469;28;20274;-77
2023/03/03 07:23:46;;;;;;;127.03;50.57;;;;;;;;;;5111912;28;20217;-77
2023/03/03 07:26:14;;;;;;;117.43;49.57;;;;;;;;;;5111748;28;20197;-77
2023/03/03 07:28:42;;;;;;;116.47;49.17;;;;;;;;;;5111480;28;20485;-77
2023/03/03 07:31:21;;;;;;;121.13;51.03;;;;;;;;;;5111651;28;20226;-78
2023/03/03 07:33:48;;;;;;;113.10;49.97;;;;;;;;;;5111530;28;20221;-77
2023/03/03 07:36:24;;;;;;;117.30;49.20;;;;;;;;;;5111954;28;20236;-76
2023/03/03 07:38:53;;;;;;;111.13;49.90;;;;;;;;;;5111519;28;20246;-78
2023/03/03 07:41:22;;;;;;;105.83;49.00;;;;;;;;;;5111697;28;20277;-79
2023/03/03 07:43:53;;;;;;;97.23;46.03;;;;;;;;;;5111559;28;20293;-79
2023/03/03 07:46:26;;;;;;;97.23;47.13;;;;;;;;;;5110812;28;20231;-78
2023/03/03 07:48:54;;;;;;;90.27;45.50;;;;;;;;;;5111552;28;20194;-78
2023/03/03 07:51:24;;;;;;;87.80;44.77;;;;;;;;;;5111244;28;20324;-79
2023/03/03 07:53:52;;;;;;;90.13;43.80;;;;;;;;;;5115167;28;20207;-79
2023/03/03 07:56:27;;;;;;;91.07;43.53;;;;;;;;;;5115562;28;20192;-79
2023/03/03 07:58:55;;;;;;;87.67;44.03;;;;;;;;;;5115154;28;20193;-80
2023/03/03 08:01:39;;;;;;;83.53;43.07;;;;;;;;;;5115399;28;20196;-79
2023/03/03 08:04:21;;;;;;;85.13;42.17;;;;;;;;;;5115116;28;20201;-79
2023/03/03 08:06:50;;;;;;;72.93;40.07;;;;;;;;;;5115258;28;20205;-77
2023/03/03 08:09:35;;;;;;;73.10;38.73;;;;;;;;;;5115033;28;20222;-78
2023/03/03 08:12:13;;;;;;;69.33;39.07;;;;;;;;;;5115197;27;20742;-79
2023/03/03 08:14:40;;;;;;;65.67;38.90;;;;;;;;;;5114875;28;20276;-80
2023/03/03 08:17:08;;;;;;;71.37;39.93;;;;;;;;;;5115014;28;20287;-79
2023/03/03 08:19:36;;;;;;;61.33;37.83;;;;;;;;;;5115177;28;20204;-78
2023/03/03 08:22:09;;;;;;;63.93;38.17;;;;;;;;;;5115165;28;20197;-78
2023/03/03 08:24:37;;;;;;;57.93;35.87;;;;;;;;;;5115203;27;20232;-79
2023/03/03 08:27:05;;;;;;;59.10;37.03;;;;;;;;;;5115116;28;20290;-78
2023/03/03 08:29:33;;;;;;;57.73;35.27;;;;;;;;;;5114366;28;20651;-78
2023/03/03 08:32:00;;;;;;;57.77;35.03;;;;;;;;;;5114947;28;20302;-78
2023/03/03 08:34:27;;;;;;;55.83;34.80;;;;;;;;;;5114795;27;20293;-78
2023/03/03 08:36:56;;;;;;;54.47;35.20;;;;;;;;;;5114996;28;20223;-78
2023/03/03 08:39:24;;;;;;;52.37;33.90;;;;;;;;;;5114668;28;20232;-79
2023/03/03 08:41:51;;;;;;;52.40;33.57;;;;;;;;;;5114718;28;20261;-79
2023/03/03 08:44:20;;;;;;;52.13;33.97;;;;;;;;;;5114600;28;20261;-79
2023/03/03 08:46:47;;;;;;;49.63;32.17;;;;;;;;;;5114583;28;20201;-78
2023/03/03 08:49:14;;;;;;;49.90;31.03;;;;;;;;;;5114538;28;20305;-79
2023/03/03 08:51:41;;;;;;;45.33;30.57;;;;;;;;;;5114539;28;20736;-80
2023/03/03 08:54:09;;;;;;;47.77;29.73;;;;;;;;;;5114361;28;20292;-80
2023/03/03 08:56:36;;;;;;;44.00;28.10;;;;;;;;;;5114149;28;20222;-78
2023/03/03 08:59:04;;;;;;;44.83;28.70;;;;;;;;;;5114506;28;20225;-78
2023/03/03 09:01:33;;;;;;;45.57;29.00;;;;;;;;;;5114514;28;20235;-79
2023/03/03 09:04:00;;;;;;;42.27;27.37;;;;;;;;;;5113070;28;20243;-77
2023/03/03 09:06:27;;;;;;;44.60;27.80;;;;;;;;;;5114278;28;20228;-78
2023/03/03 09:08:54;;;;;;;47.80;28.87;;;;;;;;;;5113913;28;20225;-78
2023/03/03 09:11:25;;;;;;;47.80;28.00;;;;;;;;;;5113444;28;20877;-78
2023/03/03 09:13:53;;;;;;;45.83;27.97;;;;;;;;;;5093733;28;20296;-79
2023/03/03 09:16:21;;;;;;;45.73;28.13;;;;;;;;;;5093702;28;20202;-77
2023/03/03 09:18:49;;;;;;;44.83;27.93;;;;;;;;;;5093527;28;20235;-79
2023/03/03 09:21:18;;;;;;;45.67;28.27;;;;;;;;;;5093515;28;20229;-79
2023/03/03 09:23:49;;;;;;;44.10;27.03;;;;;;;;;;5093675;28;20241;-77
2023/03/03 09:26:29;;;;;;;42.73;27.17;;;;;;;;;;5093229;28;20289;-79
2023/03/03 09:28:57;;;;;;;40.80;25.70;;;;;;;;;;5093541;28;20740;-79
2023/03/03 09:31:28;;;;;;;40.07;26.43;;;;;;;;;;5093632;28;20333;-78
2023/03/03 09:33:58;;;;;;;43.87;26.23;;;;;;;;;;5093176;28;20201;-78
2023/03/03 09:36:26;;;;;;;43.80;26.50;;;;;;;;;;5093246;28;20233;-79
2023/03/03 09:38:54;;;;;;;44.20;27.53;;;;;;;;;;5093516;28;20225;-78
2023/03/03 09:41:42;;;;;;;44.30;27.33;;;;;;;;;;5092708;28;20279;-78
2023/03/03 09:44:25;;;;;;;41.70;25.63;;;;;;;;;;5092870;28;20280;-79
2023/03/03 09:46:59;;;;;;;40.90;25.57;;;;;;;;;;5093101;28;20228;-79
2023/03/03 09:49:32;;;;;;;40.20;25.70;;;;;;;;;;5092579;28;20288;-79
2023/03/03 09:52:16;;;;;;;40.00;25.33;;;;;;;;;;5092914;28;20237;-79
2023/03/03 09:54:49;;;;;;;42.83;26.03;;;;;;;;;;5092535;28;20288;-79
2023/03/03 09:57:18;;;;;;;40.10;25.87;;;;;;;;;;5092929;28;20196;-79
2023/03/03 09:59:52;;;;;;;41.40;26.23;;;;;;;;;;5092795;28;20284;-79
2023/03/03 10:02:27;;;;;;;39.70;25.50;;;;;;;;;;5092942;28;20197;-79
2023/03/03 10:05:00;;;;;;;37.60;24.37;;;;;;;;;;5093016;28;20287;-78
2023/03/03 10:07:31;;;;;;;37.67;24.87;;;;;;;;;;5092974;28;20224;-79
2023/03/03 10:10:08;;;;;;;38.13;25.93;;;;;;;;;;5092068;28;20719;-79
2023/03/03 10:12:42;;;;;;;37.57;24.53;;;;;;;;;;5102799;28;20255;-78
2023/03/03 10:15:22;;;;;;;38.03;25.10;;;;;;;;;;5112444;28;20725;-78
2023/03/03 10:17:51;;;;;;;37.53;24.63;;;;;;;;;;5112885;28;20217;-79
2023/03/03 10:20:31;;;;;;;38.47;23.87;;;;;;;;;;5112951;28;20200;-80
2023/03/03 10:23:05;;;;;;;38.00;24.97;;;;;;;;;;5113044;28;20288;-79
2023/03/03 10:25:41;;;;;;;35.50;24.50;;;;;;;;;;5112706;28;20217;-78
2023/03/03 10:28:20;;;;;;;35.67;23.70;;;;;;;;;;5112745;28;20196;-79
2023/03/03 10:30:52;;;;;;;36.17;23.50;;;;;;;;;;5112434;28;20220;-79
2023/03/03 10:33:23;;;;;;;34.70;23.53;;;;;;;;;;5112166;28;20572;-78
2023/03/03 10:36:01;;;;;;;33.40;23.90;;;;;;;;;;5112097;28;20229;-79
2023/03/03 10:38:34;;;;;;;31.40;22.30;;;;;;;;;;5111944;27;20240;-79
2023/03/03 10:41:08;;;;;;;31.20;22.97;;;;;;;;;;5112395;28;20217;-79
2023/03/03 10:43:51;;;;;;;31.57;22.57;;;;;;;;;;5112309;28;20225;-79
2023/03/03 10:46:28;;;;;;;33.70;24.10;;;;;;;;;;5112016;28;20773;-79
2023/03/03 10:49:01;;;;;;;29.67;22.03;;;;;;;;;;5112068;28;20620;-78
2023/03/03 10:51:34;;;;;;;32.43;23.03;;;;;;;;;;5112084;28;20327;-79
2023/03/03 10:54:10;;;;;;;29.53;22.40;;;;;;;;;;5112039;28;20221;-80
2023/03/03 10:56:41;;;;;;;27.80;20.63;;;;;;;;;;5111947;28;20288;-79
2023/03/03 10:59:22;;;;;;;29.00;20.87;;;;;;;;;;5112055;28;20666;-78
2023/03/03 11:01:51;;;;;;;26.10;19.93;;;;;;;;;;5111940;28;20221;-79
2023/03/03 11:04:26;;;;;;;28.83;20.13;;;;;;;;;;5112274;28;20225;-79
2023/03/03 11:06:58;;;;;;;26.73;19.50;;;;;;;;;;5112330;28;20200;-78
2023/03/03 11:09:35;;;;;;;27.23;19.87;;;;;;;;;;5111347;28;20710;-79
2023/03/03 11:12:09;;;;;;;29.73;21.90;;;;;;;;;;5111737;28;20605;-79
2023/03/03 11:14:40;;;;;;;27.97;20.50;;;;;;;;;;5111832;28;20193;-79
2023/03/03 11:17:11;;;;;;;34.50;22.97;;;;;;;;;;5111732;28;20658;-79
2023/03/03 11:19:51;;;;;;;28.83;21.97;;;;;;;;;;5112159;28;20248;-80
2023/03/03 11:22:27;;;;;;;29.03;21.90;;;;;;;;;;5111405;28;20194;-79
2023/03/03 11:24:58;;;;;;;30.90;22.40;;;;;;;;;;5111809;28;20193;-79
2023/03/03 11:27:51;;;;;;;29.40;22.83;;;;;;;;;;5112641;28;20288;-79
2023/03/03 11:30:29;;;;;;;29.03;21.70;;;;;;;;;;5116407;28;20289;-78
2023/03/03 11:33:02;;;;;;;29.60;21.67;;;;;;;;;;5116006;28;20257;-79
2023/03/03 11:35:32;;;;;;;28.73;22.67;;;;;;;;;;5116263;28;20194;-79
2023/03/03 11:38:23;;;;;;;28.63;21.57;;;;;;;;;;5115229;28;20731;-79
2023/03/03 11:40:52;;;;;;;28.03;22.10;;;;;;;;;;5115877;28;20281;-79
2023/03/03 11:43:22;;;;;;;29.40;21.60;;;;;;;;;;5115522;27;20232;-79
2023/03/03 11:45:53;;;;;;;28.43;21.77;;;;;;;;;;5115385;28;20233;-79
2023/03/03 11:48:22;;;;;;;27.03;21.47;;;;;;;;;;5115509;28;20654;-79
2023/03/03 11:50:55;;;;;;;29.97;21.63;;;;;;;;;;5115358;28;20285;-79
2023/03/03 11:53:29;;;;;;;27.37;20.93;;;;;;;;;;5115586;28;20229;-80
2023/03/03 11:55:57;;;;;;;24.10;21.07;;;;;;;;;;5115416;28;20732;-78
2023/03/03 11:58:27;;;;;;;27.07;21.03;;;;;;;;;;5115977;28;20255;-79
2023/03/03 12:00:58;;;;;;;25.30;20.53;;;;;;;;;;5115451;28;20225;-80
2023/03/03 12:03:28;;;;;;;25.23;19.90;;;;;;;;;;5115272;27;20588;-79
2023/03/03 12:05:57;;;;;;;25.73;20.23;;;;;;;;;;5114843;28;20242;-78
2023/03/03 12:08:33;;;;;;;26.97;20.63;;;;;;;;;;5115538;28;20205;-79
2023/03/03 12:11:04;;;;;;;23.87;19.13;;;;;;;;;;5115506;28;20713;-79
2023/03/03 12:13:40;;;;;;;26.63;20.63;;;;;;;;;;5115182;28;20237;-80
2023/03/03 12:16:11;;;;;;;28.07;21.80;;;;;;;;;;5115164;28;20262;-80
2023/03/03 12:18:55;;;;;;;25.87;19.70;;;;;;;;;;5115037;28;20736;-80
2023/03/03 12:21:33;;;;;;;22.33;18.37;;;;;;;;;;5114657;28;20288;-79
2023/03/03 12:24:08;;;;;;;24.80;19.30;;;;;;;;;;5114883;27;20704;-79
2023/03/03 12:26:39;;;;;;;23.97;19.27;;;;;;;;;;5115381;28;20288;-79
2023/03/03 12:29:07;;;;;;;23.87;19.03;;;;;;;;;;5114900;27;20217;-80
2023/03/03 12:31:40;;;;;;;23.50;18.67;;;;;;;;;;5114762;28;20320;-79
2023/03/03 12:34:12;;;;;;;23.50;18.60;;;;;;;;;;5114614;27;20745;-80
2023/03/03 12:36:48;;;;;;;21.80;17.67;;;;;;;;;;5114943;28;20193;-79
2023/03/03 12:39:22;;;;;;;22.97;18.63;;;;;;;;;;5114370;28;20288;-80
2023/03/03 12:41:54;;;;;;;28.50;18.70;;;;;;;;;;5114431;28;20285;-79
2023/03/03 12:44:23;;;;;;;23.70;18.73;;;;;;;;;;5114784;28;20260;-79
2023/03/03 12:46:57;;;;;;;23.50;19.33;;;;;;;;;;5114625;28;20205;-78
2023/03/03 12:49:27;;;;;;;23.70;19.40;;;;;;;;;;5114079;28;20190;-78
2023/03/03 12:52:05;;;;;;;25.20;18.83;;;;;;;;;;5114307;28;20265;-79
2023/03/03 12:54:53;;;;;;;22.20;18.80;;;;;;;;;;5114638;28;20224;-78
2023/03/03 12:57:26;;;;;;;22.00;18.47;;;;;;;;;;5112401;28;20194;-79
2023/03/03 13:00:15;;;;;;;22.17;18.37;;;;;;;;;;5114349;28;20293;-78
2023/03/03 13:02:46;;;;;;;22.63;18.23;;;;;;;;;;5114319;27;20214;-79
2023/03/03 13:05:20;;;;;;;21.67;18.57;;;;;;;;;;5113457;28;20285;-79
2023/03/03 13:07:51;;;;;;;23.07;18.63;;;;;;;;;;5114583;28;20220;-78
2023/03/03 13:10:20;;;;;;;22.93;19.70;;;;;;;;;;5113955;28;20945;-79
2023/03/03 13:12:51;;;;;;;22.30;19.83;;;;;;;;;;5113644;28;20222;-79
2023/03/03 13:15:22;;;;;;;22.13;19.33;;;;;;;;;;5113961;28;20225;-79
2023/03/03 13:17:54;;;;;;;22.53;19.00;;;;;;;;;;5114174;28;20331;-79
2023/03/03 13:20:25;;;;;;;24.77;19.70;;;;;;;;;;5114095;28;20292;-79
2023/03/03 13:22:56;;;;;;;23.23;18.87;;;;;;;;;;5114228;28;20224;-78
2023/03/03 13:25:31;;;;;;;23.90;20.80;;;;;;;;;;5113950;28;20221;-78
2023/03/03 13:28:03;;;;;;;24.77;20.77;;;;;;;;;;5113552;28;20399;-79
2023/03/03 13:30:33;;;;;;;24.50;21.43;;;;;;;;;;5113523;28;20737;-79
2023/03/03 13:33:02;;;;;;;25.43;21.00;;;;;;;;;;5113387;28;20308;-79
2023/03/03 13:35:33;;;;;;;26.10;21.87;;;;;;;;;;5113648;28;20225;-79
2023/03/03 13:38:03;;;;;;;23.43;20.57;;;;;;;;;;5113753;28;20194;-79
2023/03/03 13:40:35;;;;;;;26.63;22.63;;;;;;;;;;5113636;28;20670;-79
2023/03/03 13:43:05;;;;;;;25.63;22.03;;;;;;;;;;5113649;28;20225;-79
2023/03/03 13:45:38;;;;;;;28.17;22.40;;;;;;;;;;5113269;28;20341;-79
2023/03/03 13:48:10;;;;;;;25.10;22.03;;;;;;;;;;5112953;28;20232;-78
2023/03/03 13:50:42;;;;;;;27.13;21.87;;;;;;;;;;5113200;28;20228;-80
2023/03/03 13:53:18;;;;;;;25.27;21.60;;;;;;;;;;5112986;28;20257;-79
2023/03/03 13:55:48;;;;;;;25.07;21.10;;;;;;;;;;5113500;28;20656;-79
2023/03/03 13:58:22;;;;;;;25.33;21.53;;;;;;;;;;5113180;28;20266;-78
2023/03/03 14:00:55;;;;;;;25.13;21.07;;;;;;;;;;5113230;28;20247;-79
2023/03/03 14:03:33;;;;;;;21.43;18.83;;;;;;;;;;5112588;28;20193;-79
2023/03/03 14:06:02;;;;;;;24.30;19.90;;;;;;;;;;5113257;28;20222;-79
2023/03/03 14:08:41;;;;;;;23.23;19.97;;;;;;;;;;5113071;28;20240;-79
2023/03/03 14:11:11;;;;;;;23.23;19.10;;;;;;;;;;5113146;27;20280;-79
2023/03/03 14:13:43;;;;;;;22.30;19.60;;;;;;;;;;5112698;28;20317;-78
2023/03/03 14:16:12;;;;;;;25.03;19.80;;;;;;;;;;5112415;28;20288;-79
2023/03/03 14:18:40;;;;;;;23.17;19.67;;;;;;;;;;5113021;28;20194;-79
2023/03/03 14:21:09;;;;;;;22.50;18.03;;;;;;;;;;5112808;28;20225;-79
2023/03/03 14:23:42;;;;;;;20.67;16.27;;;;;;;;;;5113024;28;20198;-80
2023/03/03 14:26:10;;;;;;;22.40;17.83;;;;;;;;;;5112687;27;20614;-79
2023/03/03 14:28:44;;;;;;;20.87;16.37;;;;;;;;;;5112716;28;20225;-79
2023/03/03 14:31:18;;;;;;;20.47;17.07;;;;;;;;;;5112387;28;20619;-80
2023/03/03 14:33:47;;;;;;;19.40;15.93;;;;;;;;;;5112674;28;20260;-78